• Join FlightAware (Why Join?)
  • Login
  • US Flag 
10:41PM EDT


 

Airport Tracker/Info


-or-


 

Live Flight TrackerFlight Track Log ✈ BVN8571 ✈ 18-Oct-2013 ✈ KOMA - KEAR

Flight Track Log - Related Links

Times and Time Zones

All times are in EDT time to prevent confusion due to time zone crossing. See the BVN8571 flight status page for this flight to view local times or setup timezone preferences in your user account.

Time Position Orientation Groundspeed Altitude Reporting Facility
EDT Latitude Longitude Course Direction KTS MPH feet Rate Location/Type
07:58AM 41.3042 -95.9047 320° Northwest 82 94 1,400  Level Minneapolis Center
08:00AM 41.3292 -95.9322 320° Northwest 99 114 2,700 960 Climbing Minneapolis Center
08:00AM 41.3272 -95.9242 108° East 97 112 2,600 960 Descending Minneapolis Center
08:01AM 41.3436 -95.9611 301° West 107 123 3,700 1,020 Climbing Minneapolis Center
08:01AM 41.3478 -95.9489 66° East 98 113 3,700 1,080 Level Minneapolis Center
08:02AM 41.3206 -95.9942 231° Southwest 129 148 4,800 1,080 Climbing Minneapolis Center
08:02AM 41.3239 -95.9858 62° Northeast 118 136 4,800 840 Level Minneapolis Center
08:03AM 41.2975 -96.0275 230° Southwest 125 144 5,700 960 Climbing Minneapolis Center
08:03AM 41.3011 -96.0211 53° Northeast 122 140 5,800 780 Climbing Minneapolis Center
08:04AM 41.2794 -96.0683 239° Southwest 124 143 6,500 780 Climbing Minneapolis Center
08:04AM 41.2819 -96.0592 70° East 125 144 6,600 900 Climbing Minneapolis Center
08:05AM 41.2747 -96.1103 259° West 118 136 7,500 780 Climbing Minneapolis Center
08:05AM 41.2706 -96.1247 249° West 114 131 7,600 660 Climbing Minneapolis Center
08:06AM 41.2675 -96.1500 261° West 113 130 8,200 180 Climbing Minneapolis Center
08:07AM 41.2561 -96.1958 252° West 138 159 8,000 -120 Descending Minneapolis Center
08:07AM 41.2606 -96.1967 352° North 122 140 8,100  Climbing Minneapolis Center
08:08AM 41.2489 -96.2464 253° West 143 165 8,000  Descending Minneapolis Center
08:08AM 41.2511 -96.2500 309° West 141 162 8,100  Climbing Minneapolis Center
08:09AM 41.2378 -96.3031 252° West 142 163 8,000  Descending Minneapolis Center
08:09AM 41.2428 -96.3017 12° North 143 165 8,100  Climbing Minneapolis Center
08:10AM 41.2283 -96.3539 250° West 145 167 8,000  Descending Minneapolis Center
08:10AM 41.2331 -96.3533 North 144 166 8,100  Climbing Minneapolis Center
08:11AM 41.2189 -96.4022 249° West 146 168 8,000  Descending Minneapolis Center
08:11AM 41.2236 -96.4058 330° Northwest 145 167 8,100  Climbing Minneapolis Center
08:12AM 41.2075 -96.4558 247° West 146 168 8,000  Descending Minneapolis Center
08:12AM 41.2147 -96.4583 345° North 145 167 8,100  Climbing Minneapolis Center
08:13AM 41.1964 -96.5125 246° West 149 171 8,000  Descending Minneapolis Center
08:13AM 41.2044 -96.5119 North 148 170 8,100  Climbing Minneapolis Center
08:14AM 41.1886 -96.5578 245° Southwest 148 170 8,000  Descending Minneapolis Center
08:14AM 41.1953 -96.5647 322° Northwest 147 169 8,100  Climbing Minneapolis Center
08:15AM 41.1792 -96.6111 245° Southwest 143 165 8,000  Descending Minneapolis Center
08:15AM 41.1864 -96.6158 334° Northwest 145 167 8,100  Climbing Minneapolis Center
08:16AM 41.1678 -96.6622 242° Southwest 142 163 8,000  Descending Minneapolis Center
08:16AM 41.1758 -96.6772 306° West 143 165 8,100 60 Climbing Minneapolis Center
08:17AM 41.1600 -96.7072 235° Southwest 140 161 8,100  Level Minneapolis Center
08:17AM 41.1661 -96.7272 292° West 141 162 8,100  Level Minneapolis Center
08:18AM 41.1483 -96.7611 235° Southwest 141 162 8,100  Level Minneapolis Center
08:18AM 41.1572 -96.7789 304° West 142 163 8,100  Level Minneapolis Center
08:19AM 41.1389 -96.8119 234° Southwest 142 163 8,100  Level Minneapolis Center
08:19AM 41.1481 -96.8292 305° West 142 163 8,100  Level Minneapolis Center
08:20AM 41.1292 -96.8597 231° Southwest 143 165 8,100  Level Minneapolis Center
08:20AM 41.1389 -96.8811 301° West 143 165 8,100  Level Minneapolis Center
08:21AM 41.1197 -96.9161 234° Southwest 144 166 8,100  Level Minneapolis Center
08:21AM 41.1289 -96.9317 308° West 143 165 8,100  Level Minneapolis Center
08:22AM 41.1097 -96.9586 227° Southwest 145 167 8,100  Level Minneapolis Center
08:22AM 41.1208 -96.9842 300° West 145 167 8,100  Level Minneapolis Center
08:23AM 41.1092 -97.0367 254° West 147 169 8,100  Level Minneapolis Center
08:24AM 41.0983 -97.0944 256° West 148 170 8,100  Level Minneapolis Center
08:25AM 41.0892 -97.1531 258° West 146 168 8,100  Level Minneapolis Center
08:26AM 41.0786 -97.2064 255° West 149 171 8,100  Level Minneapolis Center
08:27AM 41.0683 -97.2597 256° West 149 171 8,100  Level Minneapolis Center
08:28AM 41.0586 -97.3125 256° West 149 171 8,100  Level Minneapolis Center
08:29AM 41.0492 -97.3644 256° West 146 168 8,100  Level Minneapolis Center
08:30AM 41.0378 -97.4228 256° West 149 171 8,100  Level Minneapolis Center
08:31AM 41.0281 -97.4747 256° West 147 169 8,100  Level Minneapolis Center
08:32AM 41.0172 -97.5269 255° West 146 168 8,100  Level Minneapolis Center
08:34AM 41.0092 -97.5786 258° West 145 167 8,100  Level Minneapolis Center
08:35AM 40.9981 -97.6322 255° West 148 170 8,100  Level Minneapolis Center
08:36AM 40.9875 -97.6853 255° West 149 171 8,100  Level Minneapolis Center
08:37AM 40.9758 -97.7486 256° West 149 171 8,100  Level Minneapolis Center
08:38AM 40.9664 -97.8008 257° West 146 168 8,100  Level Minneapolis Center
08:39AM 40.9567 -97.8550 257° West 149 171 8,100  Level Minneapolis Center
08:40AM 40.9456 -97.9083 255° West 150 173 8,100  Level Minneapolis Center
08:41AM 40.9356 -97.9614 256° West 149 171 8,100  Level Minneapolis Center
08:42AM 40.9261 -98.0144 257° West 148 170 8,100  Level Minneapolis Center
08:43AM 40.9164 -98.0669 256° West 148 170 8,100  Level Minneapolis Center
08:44AM 40.9047 -98.1183 253° West 146 168 8,100  Level Minneapolis Center
08:45AM 40.8944 -98.1708 255° West 147 169 8,100  Level Minneapolis Center
08:46AM 40.8858 -98.2225 258° West 145 167 8,100 -300 Level Minneapolis Center
08:47AM 40.8733 -98.2897 256° West 153 176 7,500 -540 Descending Minneapolis Center
08:48AM 40.8653 -98.3486 260° West 161 185 7,000 -600 Descending Minneapolis Center
08:49AM 40.8561 -98.4100 259° West 165 190 6,300 -660 Descending Minneapolis Center
08:50AM 40.8467 -98.4747 259° West 172 198 5,700 -540 Descending Minneapolis Center
08:51AM 40.8378 -98.5369 259° West 173 199 5,300 -480 Descending Minneapolis Center
08:52AM 40.8289 -98.5969 259° West 170 196 4,800 -360 Descending Minneapolis Center
08:53AM 40.8169 -98.6564 255° West 168 193 4,600 -120 Descending Minneapolis Center
08:54AM 40.8028 -98.7114 251° West 163 188 4,600 -60 Level Minneapolis Center
08:55AM 40.7900 -98.7661 253° West 159 183 4,500 -120 Descending Minneapolis Center
08:57AM 40.7631 -98.8339 242° Southwest  Level FlightAware Approximate
09:04AM 40.7167 -99.0000 270° West  Level FlightAware Approximate